• Join FlightAware (Why Join?)
  • Login
  • US Flag 
06:05PM EDT


 

Airport Tracker/Info


-or-


 

Live Flight TrackerFlight Track Log ✈ UAL4236 ✈ 14-Apr-2013 ✈ KIAH - KELP

Flight Track Log - Related Links

Times and Time Zones

All times are in EDT time to prevent confusion due to time zone crossing. See the UAL4236 flight status page for this flight to view local times or setup timezone preferences in your user account.

Time Position Orientation Groundspeed Altitude Reporting Facility
EDT Latitude Longitude Course Direction KTS MPH feet Rate Location/Type
10:03AM 29.9639 -95.3433 276° West 159 183 700  Level Houston Center
10:04AM 29.9142 -95.3758 210° Southwest 224 258 2,500 2,040 Climbing Houston Center
10:05AM 29.8961 -95.4375 251° West 239 275 4,900 2,520 Climbing Houston Center
10:06AM 29.9164 -95.5125 287° West 251 289 7,400 2,400 Climbing Houston Center
10:07AM 30.0406 -95.8872 276° West  Level FlightAware Approximate
10:07AM 29.9383 -95.5947 287° West 256 295 9,800  Level Houston Center
10:08AM 30.0499 -95.9986 276° West  Level FlightAware Approximate
10:08AM 29.9619 -95.6717 290° West 265 305 11,100  Level Houston Center
10:09AM 29.9881 -95.7656 288° West 300 345 12,100 1,020 Climbing Houston Center
10:10AM 30.0169 -95.8686 288° West 336 387 13,200 1,140 Climbing Houston Center
10:11AM 30.0458 -95.9758 287° West 349 402 14,500 1,260 Climbing Houston Center
10:12AM 30.0761 -96.0894 287° West 353 406 15,800 1,260 Climbing Houston Center
10:13AM 30.0922 -96.2008 280° West 355 409 17,100 1,320 Climbing Houston Center
10:14AM 30.1097 -96.3136 280° West 359 413 18,500 1,320 Climbing Houston Center
10:15AM 30.1303 -96.4447 280° West 359 413 19,800 1,080 Climbing Houston Center
10:16AM 30.1467 -96.5633 279° West 368 423 20,800 1,020 Climbing Houston Center
10:17AM 30.1653 -96.6822 280° West 372 428 21,900 1,080 Climbing Houston Center
10:18AM 30.1836 -96.8008 280° West 372 428 23,100 1,080 Climbing Houston Center
10:19AM 30.2006 -96.9189 279° West 369 425 24,200 1,020 Climbing Houston Center
10:20AM 30.2192 -97.0378 280° West 371 427 25,200 1,020 Climbing Houston Center
10:21AM 30.2358 -97.1569 279° West 371 427 26,300 1,080 Climbing Houston Center
10:22AM 30.2531 -97.2728 280° West 363 418 27,500 1,320 Climbing Houston Center
10:23AM 30.2694 -97.3864 280° West 357 411 29,100 1,620 Climbing Houston Center
10:24AM 30.2836 -97.4917 279° West 332 382 30,800 1,320 Climbing Houston Center
10:25AM 30.2997 -97.5978 280° West 330 380 31,800 960 Climbing Houston Center
10:26AM 30.3158 -97.7083 280° West 339 390 32,800 960 Climbing Houston Center
10:27AM 30.3314 -97.8211 279° West 348 400 33,800 960 Climbing Houston Center
10:28AM 30.3519 -97.9303 282° West 345 397 34,800 900 Climbing Houston Center
10:29AM 30.3733 -98.0419 283° West 347 399 35,700 540 Climbing Houston Center
10:30AM 30.3994 -98.1747 283° West 355 409 36,000 120 Climbing Houston Center
10:31AM 30.4222 -98.2936 283° West 373 429 36,000  Level Houston Center
10:32AM 30.4464 -98.4194 283° West 390 449 36,000  Level Houston Center
10:33AM 30.4703 -98.5408 283° West 384 442 36,000  Level Houston Center
10:34AM 30.4917 -98.6611 282° West 377 434 36,000  Level Houston Center
10:35AM 30.5150 -98.7800 283° West 375 432 36,000  Level Houston Center
10:36AM 30.5378 -98.8992 283° West 376 433 36,000  Level Houston Center
10:37AM 30.5611 -99.0183 283° West 374 430 36,000  Level Houston Center
10:38AM 30.5831 -99.1369 282° West 374 430 36,000 -60 Level Houston Center
10:39AM 30.6089 -99.2697 283° West 377 434 35,900 -60 Descending Houston Center
10:41AM 30.6314 -99.3906 282° West 382 440 35,900  Level Houston Center
10:42AM 30.6542 -99.5117 282° West 384 442 36,000  Climbing Houston Center
10:43AM 30.6739 -99.6311 281° West 381 438 36,000  Level Houston Center
10:44AM 30.6958 -99.7497 282° West 379 436 36,000  Level Houston Center
10:45AM 30.7161 -99.8631 282° West 366 421 36,000  Level Houston Center
10:46AM 30.7375 -99.9817 282° West 376 433 36,000  Level Houston Center
10:47AM 30.7619 -100.1239 281° West 376 433 36,000  Level Houston Center
10:48AM 30.7831 -100.2428 282° West 376 433 36,000 -240 Level Houston Center
10:49AM 30.8064 -100.3622 283° West 379 436 35,600 -1,200 Descending Houston Center
10:50AM 30.8269 -100.4833 281° West 381 438 33,600 -1,680 Descending Houston Center
10:51AM 30.8456 -100.5992 281° West 366 421 32,200 -840 Descending Houston Center
10:52AM 30.8692 -100.7167 283° West 371 427 32,000 -120 Descending Houston Center
10:53AM 30.8886 -100.8433 280° West 392 451 32,000  Level Houston Center
10:54AM 30.9133 -100.9883 281° West 378 435 32,000  Level Houston Center
10:55AM 30.9336 -101.1086 281° West 380 437 32,000  Level Houston Center
10:56AM 30.9556 -101.2283 282° West 376 433 32,000  Level Houston Center
10:57AM 30.9764 -101.3511 281° West 387 445 32,000  Level Houston Center
10:57AM 30.9881 -101.4244 281° West 390 449 32,000  Level Albuquerque Center
10:58AM 31.0078 -101.5494 280° West 392 451 32,000  Level Albuquerque Center
10:59AM 31.0272 -101.6719 281° West 388 447 32,000  Level Albuquerque Center
11:00AM 31.0481 -101.7953 281° West 388 447 32,000  Level Albuquerque Center
11:02AM 31.0681 -101.9181 281° West 386 444 32,000  Level Albuquerque Center
11:03AM 31.0864 -102.0433 280° West 397 457 32,000  Level Albuquerque Center
11:04AM 31.1075 -102.1631 282° West 382 440 32,000  Level Albuquerque Center
11:05AM 31.1303 -102.3114 280° West 386 444 32,000  Level Albuquerque Center
11:06AM 31.1503 -102.4353 281° West 388 447 32,000  Level Albuquerque Center
11:07AM 31.1700 -102.5656 280° West 381 438 32,000  Level Albuquerque Center
11:08AM 31.1897 -102.6903 281° West 386 444 32,000  Level Albuquerque Center
11:09AM 31.2100 -102.8136 281° West 387 445 32,000  Level Albuquerque Center
11:10AM 31.2286 -102.9378 280° West 387 445 32,000  Level Albuquerque Center
11:11AM 31.2481 -103.0633 280° West 391 450 32,000  Level Albuquerque Center
11:12AM 31.2672 -103.1878 280° West 390 449 32,000  Level Albuquerque Center
11:13AM 31.2858 -103.3144 280° West 394 453 32,000  Level Albuquerque Center
11:14AM 31.3078 -103.4669 280° West 396 456 32,000  Level Albuquerque Center
11:15AM 31.3281 -103.5931 281° West 394 453 32,000 -60 Level Albuquerque Center
11:16AM 31.3464 -103.7183 280° West 393 452 31,900  Descending Albuquerque Center
11:17AM 31.3650 -103.8442 280° West 388 447 32,000  Climbing Albuquerque Center
11:18AM 31.3831 -103.9656 280° West 382 440 32,000 -60 Level Albuquerque Center
11:19AM 31.3997 -104.0858 279° West 377 434 31,900 -60 Descending Albuquerque Center
11:20AM 31.4175 -104.2067 280° West 377 434 31,900  Level Albuquerque Center
11:21AM 31.4406 -104.3542 280° West 382 440 32,000 -180 Climbing Albuquerque Center
11:22AM 31.4567 -104.4769 279° West 384 442 31,600 -1,140 Descending Albuquerque Center
11:23AM 31.4694 -104.6042 277° West 389 448 29,700 -1,920 Descending Albuquerque Center
11:24AM 31.4833 -104.7375 277° West 399 459 27,700 -1,920 Descending Albuquerque Center
11:25AM 31.4967 -104.8711 277° West 409 471 25,800 -1,920 Descending Albuquerque Center
11:26AM 31.5108 -105.0019 277° West 410 472 23,800 -2,160 Descending Albuquerque Center
11:27AM 31.5269 -105.1575 277° West 407 468 21,400 -2,100 Descending Albuquerque Center
11:28AM 31.5389 -105.2839 276° West 399 459 19,500 -2,040 Descending Albuquerque Center
11:29AM 31.5503 -105.4078 276° West 387 445 17,200 -2,100 Descending Albuquerque Center
11:30AM 31.5617 -105.5250 277° West 368 423 15,200 -1,860 Descending Albuquerque Center
11:31AM 31.5739 -105.6450 277° West 370 426 13,400 -1,680 Descending Albuquerque Center
11:32AM 31.5839 -105.7608 276° West 345 397 12,100 -1,380 Descending Albuquerque Center
11:33AM 31.6103 -105.8467 290° West 287 330 11,000 -1,440 Descending Albuquerque Center
11:33AM 31.6211 -105.8639 306° West 288 331 10,400 -2,040 Descending Albuquerque Center
11:34AM 31.6475 -105.9194 299° West 236 272 9,000 -1,800 Descending Albuquerque Center
11:35AM 31.6542 -105.9336 299° West 247 284 8,600 -1,020 Descending Albuquerque Center
11:35AM 31.6803 -105.9811 303° West 220 253 8,000 -720 Descending Albuquerque Center
11:36AM 31.6864 -105.9961 296° West 227 261 7,900 -120 Descending Albuquerque Center
11:36AM 31.7089 -106.0439 299° West 221 254 7,900 -300 Level Albuquerque Center
11:37AM 31.7169 -106.0583 303° West 220 253 7,600 -900 Descending Albuquerque Center
11:37AM 31.7419 -106.1081 301° West 224 258 7,000 -720 Descending Albuquerque Center
11:38AM 31.7489 -106.1217 301° West 224 258 6,900  Descending Albuquerque Center
11:38AM 31.7719 -106.1656 302° West 208 239 7,000  Climbing Albuquerque Center
11:39AM 31.7786 -106.1786 301° West 208 239 6,900 -840 Descending Albuquerque Center
11:39AM 31.7931 -106.2228 291° West 178 205 6,200 -1,140 Descending Albuquerque Center
11:40AM 31.7947 -106.2439 275° West 162 186 5,800 -720 Descending Albuquerque Center
11:40AM 31.7950 -106.2697 271° West 133 153 5,500 -720 Descending Albuquerque Center
11:41AM 31.7972 -106.2894 278° West 143 165 5,100 -960 Descending Albuquerque Center